Time;durP1;ratioP1;P1;durP2;ratioP2;P2;SDS_P1;SDS_P2;PMS_P1;PMS_P2;Temp;Humidity;BMP_temperature;BMP_pressure;BME280_temperature;BME280_humidity;BME280_pressure;Samples;Min_cycle;Max_cycle;Signal;HPM_P1;HPM_P2
2022/12/18 00:01:32;;;;;;;8.20;6.00;;;7.30;91.80;;;;;;5065872;28;20237;-63
2022/12/18 00:04:03;;;;;;;7.27;6.57;;;7.20;91.90;;;;;;5061005;28;20541;-64
2022/12/18 00:06:30;;;;;;;8.50;6.43;;;7.10;91.80;;;;;;5058764;28;20203;-63
2022/12/18 00:08:58;;;;;;;7.50;5.73;;;7.10;91.70;;;;;;5064407;28;20286;-64
2022/12/18 00:11:28;;;;;;;8.20;6.57;;;7.00;91.60;;;;;;5061247;28;20264;-63
2022/12/18 00:13:57;;;;;;;9.73;6.97;;;7.00;91.40;;;;;;5064516;28;20272;-63
2022/12/18 00:16:26;;;;;;;9.00;6.87;;;6.90;91.60;;;;;;5061108;28;20205;-63
2022/12/18 00:18:55;;;;;;;9.47;7.60;;;6.90;91.60;;;;;;5059470;28;20202;-64
2022/12/18 00:21:22;;;;;;;9.87;6.80;;;6.80;91.70;;;;;;5062475;28;20675;-63
2022/12/18 00:23:51;;;;;;;10.33;6.87;;;6.80;91.80;;;;;;5065552;28;20194;-63
2022/12/18 00:26:21;;;;;;;6.97;6.17;;;6.80;91.90;;;;;;5055872;28;20202;-63
2022/12/18 00:28:52;;;;;;;11.23;6.20;;;6.80;91.90;;;;;;5061303;28;20202;-63
2022/12/18 00:31:21;;;;;;;8.73;7.00;;;6.80;92.00;;;;;;5063536;28;20209;-64
2022/12/18 00:33:48;;;;;;;9.10;6.70;;;6.70;92.00;;;;;;5061574;28;20224;-63
2022/12/18 00:36:23;;;;;;;7.53;6.50;;;6.70;92.00;;;;;;5042460;28;20296;-63
2022/12/18 00:38:53;;;;;;;7.87;6.10;;;6.70;91.90;;;;;;5055318;28;20567;-63
2022/12/18 00:44:07;;;;;;;6.50;5.80;;;6.60;91.80;;;;;;5062924;28;20210;-63
2022/12/18 00:46:34;;;;;;;10.17;6.60;;;6.60;91.80;;;;;;5049246;28;20682;-63
2022/12/18 00:49:01;;;;;;;8.13;6.40;;;6.60;91.70;;;;;;5051307;28;20289;-64
2022/12/18 00:51:29;;;;;;;9.20;6.43;;;6.50;91.70;;;;;;5065093;28;20729;-63
2022/12/18 00:53:56;;;;;;;9.30;7.67;;;6.40;91.50;;;;;;5050319;28;20302;-64
2022/12/18 00:56:23;;;;;;;8.47;5.97;;;6.40;91.50;;;;;;5060616;28;20210;-63
2022/12/18 00:58:52;;;;;;;7.90;6.70;;;6.30;91.50;;;;;;5063076;28;20276;-63
2022/12/18 01:01:19;;;;;;;9.27;5.57;;;6.30;91.50;;;;;;5061235;28;20227;-63
2022/12/18 01:03:47;;;;;;;6.83;5.93;;;6.20;91.60;;;;;;5068128;28;20255;-63
2022/12/18 01:06:16;;;;;;;6.90;5.33;;;6.20;91.60;;;;;;5066521;28;20276;-64
2022/12/18 01:08:44;;;;;;;6.53;5.50;;;6.20;91.70;;;;;;5066187;28;20526;-63
2022/12/18 01:11:17;;;;;;;8.70;6.03;;;6.10;91.70;;;;;;5069510;28;20243;-64
2022/12/18 01:13:45;;;;;;;8.63;5.43;;;6.10;91.80;;;;;;5048311;28;20590;-63
2022/12/18 01:16:14;;;;;;;7.07;5.93;;;6.10;91.80;;;;;;5053197;28;20201;-63
2022/12/18 01:18:42;;;;;;;6.63;5.60;;;6.10;91.80;;;;;;5053045;28;20255;-63
2022/12/18 01:21:11;;;;;;;6.27;5.67;;;6.10;91.80;;;;;;5067520;28;20194;-63
2022/12/18 01:23:38;;;;;;;9.63;5.83;;;6.10;92.10;;;;;;5065792;28;20214;-64
2022/12/18 01:26:11;;;;;;;7.47;6.00;;;6.20;91.80;;;;;;5053866;28;20217;-63
2022/12/18 01:28:39;;;;;;;7.13;5.70;;;6.20;91.70;;;;;;5061876;28;20209;-63
2022/12/18 01:31:23;;;;;;;5.93;5.33;;;6.20;91.70;;;;;;5056598;28;20538;-64
2022/12/18 01:33:51;;;;;;;8.20;6.07;;;6.30;91.80;;;;;;5054229;28;20208;-63
2022/12/18 01:36:22;;;;;;;7.80;5.50;;;6.30;91.70;;;;;;5058212;28;20201;-63
2022/12/18 01:38:50;;;;;;;9.83;6.93;;;6.30;91.60;;;;;;5063239;28;20635;-63
2022/12/18 01:41:21;;;;;;;7.93;5.53;;;6.40;91.60;;;;;;5064336;28;20225;-64
2022/12/18 01:43:53;;;;;;;8.33;6.03;;;6.40;91.50;;;;;;5049926;28;20273;-63
2022/12/18 01:46:23;;;;;;;7.17;5.87;;;6.40;91.40;;;;;;5063166;28;20702;-63
2022/12/18 01:49:01;;;;;;;7.77;6.00;;;6.40;91.50;;;;;;5047806;28;20209;-63
2022/12/18 01:51:30;;;;;;;8.27;6.10;;;6.40;91.50;;;;;;5065455;28;20205;-64
2022/12/18 01:53:58;;;;;;;8.40;6.33;;;6.40;91.50;;;;;;5051050;28;20220;-63
2022/12/18 01:56:25;;;;;;;9.87;7.00;;;6.40;91.60;;;;;;5052101;28;20198;-63
2022/12/18 01:59:04;;;;;;;8.93;6.37;;;6.50;91.70;;;;;;5055456;28;20202;-63
2022/12/18 02:01:32;;;;;;;7.27;6.47;;;6.40;91.80;;;;;;5065337;28;20629;-63
2022/12/18 02:04:25;;;;;;;7.23;5.53;;;6.50;91.90;;;;;;5047196;28;20210;-63
2022/12/18 02:07:19;;;;;;;9.13;6.07;;;6.50;91.70;;;;;;5062277;28;20209;-63
2022/12/18 02:09:59;;;;;;;6.60;5.20;;;6.50;91.50;;;;;;5061469;28;20275;-63
2022/12/18 02:12:54;;;;;;;7.47;5.23;;;6.50;91.30;;;;;;5052745;28;20742;-64
2022/12/18 02:15:55;;;;;;;6.63;5.57;;;6.50;91.20;;;;;;5044519;28;20202;-63
2022/12/18 02:18:30;;;;;;;7.90;5.43;;;6.50;91.10;;;;;;5021122;28;20302;-63
2022/12/18 02:21:14;;;;;;;8.20;6.27;;;6.50;91.00;;;;;;5068238;28;20190;-63
2022/12/18 02:23:43;;;;;;;6.57;5.43;;;6.50;90.50;;;;;;5051438;28;20213;-63
2022/12/18 02:26:40;;;;;;;7.80;5.93;;;6.40;90.40;;;;;;5061659;28;20202;-64
2022/12/18 02:29:16;;;;;;;5.93;5.33;;;6.40;90.40;;;;;;5054061;28;20214;-63
2022/12/18 02:31:52;;;;;;;7.20;5.83;;;6.40;90.30;;;;;;5059172;28;20201;-64
2022/12/18 02:34:23;;;;;;;6.43;5.67;;;6.30;90.10;;;;;;5066267;28;20204;-63
2022/12/18 02:36:53;;;;;;;7.23;5.57;;;6.30;90.00;;;;;;5046996;28;20210;-63
2022/12/18 02:39:23;;;;;;;7.00;5.77;;;6.30;90.10;;;;;;5054448;28;20205;-63
2022/12/18 02:41:59;;;;;;;6.40;5.33;;;6.30;90.00;;;;;;5053696;28;20209;-63
2022/12/18 02:44:26;;;;;;;6.23;5.63;;;6.30;89.70;;;;;;5050369;28;20207;-63
2022/12/18 02:46:54;;;;;;;8.73;6.30;;;6.30;89.90;;;;;;5049873;28;20639;-63
2022/12/18 02:49:40;;;;;;;6.97;5.30;;;6.20;89.90;;;;;;5046013;28;20620;-63
2022/12/18 02:52:31;;;;;;;5.73;5.07;;;6.20;90.10;;;;;;5065848;28;20217;-63
2022/12/18 02:55:29;;;;;;;7.30;6.10;;;6.30;90.30;;;;;;5049469;28;20221;-63
2022/12/18 02:58:41;;;;;;;9.03;6.63;;;6.30;90.50;;;;;;5054397;28;20263;-63
2022/12/18 03:01:28;;;;;;;7.33;5.97;;;6.30;90.60;;;;;;5042405;28;20276;-63
2022/12/18 03:04:26;;;;;;;7.73;5.43;;;6.30;90.70;;;;;;5066588;28;20256;-63
2022/12/18 03:06:56;;;;;;;6.83;4.93;;;6.30;90.80;;;;;;5053901;28;20288;-63
2022/12/18 03:09:35;;;;;;;7.23;5.60;;;6.30;90.90;;;;;;5052403;28;20219;-63
2022/12/18 03:12:24;;;;;;;7.40;6.17;;;6.30;90.90;;;;;;5053155;28;20546;-63
2022/12/18 03:14:54;;;;;;;7.87;6.20;;;6.40;91.00;;;;;;5044603;28;20708;-64
2022/12/18 03:17:25;;;;;;;6.77;6.10;;;6.30;90.60;;;;;;5047542;28;20206;-65
2022/12/18 03:19:55;;;;;;;9.20;6.50;;;6.40;90.50;;;;;;5044562;28;20233;-63
2022/12/18 03:22:25;;;;;;;8.23;6.90;;;6.30;90.50;;;;;;5046488;28;20271;-64
2022/12/18 03:24:56;;;;;;;7.53;6.07;;;6.30;90.60;;;;;;5052901;28;20232;-63
2022/12/18 03:27:27;;;;;;;7.37;6.47;;;6.30;90.60;;;;;;5061639;28;20513;-64
2022/12/18 03:30:08;;;;;;;8.10;6.17;;;6.30;90.60;;;;;;5048560;28;20640;-63
2022/12/18 03:32:47;;;;;;;7.40;6.20;;;6.30;90.70;;;;;;5047026;28;20621;-63
2022/12/18 03:35:19;;;;;;;7.60;6.03;;;6.30;90.50;;;;;;5055576;28;20206;-63
2022/12/18 03:37:47;;;;;;;9.83;7.23;;;6.30;90.20;;;;;;5060410;28;20682;-63
2022/12/18 03:40:14;;;;;;;7.80;6.67;;;6.20;90.10;;;;;;5060566;28;20216;-64
2022/12/18 03:42:55;;;;;;;8.73;6.93;;;6.20;90.00;;;;;;5044719;28;20209;-64
2022/12/18 03:45:37;;;;;;;7.70;5.90;;;6.10;90.10;;;;;;5046384;28;20610;-63
2022/12/18 03:48:17;;;;;;;11.97;7.13;;;6.10;90.20;;;;;;5049461;28;20205;-64
2022/12/18 03:51:07;;;;;;;8.23;6.47;;;6.00;90.30;;;;;;5046732;28;20590;-63
2022/12/18 03:53:49;;;;;;;8.37;6.50;;;6.00;90.50;;;;;;5046817;28;20265;-63
2022/12/18 03:56:22;;;;;;;9.47;6.00;;;6.00;90.80;;;;;;5058924;28;20186;-64
2022/12/18 03:58:50;;;;;;;10.47;6.93;;;5.90;90.90;;;;;;5046389;28;20289;-64
2022/12/18 04:01:28;;;;;;;8.17;6.73;;;5.80;91.10;;;;;;5047711;28;20241;-63
2022/12/18 04:03:58;;;;;;;8.47;6.80;;;5.80;91.30;;;;;;5052108;28;20216;-63
2022/12/18 04:06:25;;;;;;;8.00;6.43;;;5.70;91.40;;;;;;5043120;28;20217;-63
2022/12/18 04:08:52;;;;;;;7.97;6.30;;;5.80;91.50;;;;;;5047507;28;20212;-63
2022/12/18 04:11:23;;;;;;;8.17;6.43;;;5.70;91.60;;;;;;5037796;28;20216;-63
2022/12/18 04:13:54;;;;;;;8.03;6.90;;;5.70;91.70;;;;;;5044169;28;20581;-63
2022/12/18 04:16:23;;;;;;;7.93;6.50;;;5.70;91.90;;;;;;5065138;28;20582;-63
2022/12/18 04:18:54;;;;;;;8.37;7.17;;;5.70;92.00;;;;;;5043030;28;20202;-63
2022/12/18 04:21:23;;;;;;;8.53;7.00;;;5.70;92.00;;;;;;5043572;28;20308;-64
2022/12/18 04:23:51;;;;;;;9.53;6.80;;;5.80;92.00;;;;;;5064375;28;20233;-63
2022/12/18 04:26:21;;;;;;;9.57;6.27;;;5.80;91.90;;;;;;5047320;28;20647;-63
2022/12/18 04:29:11;;;;;;;8.70;6.60;;;5.80;91.80;;;;;;5052491;28;20212;-63
2022/12/18 04:31:38;;;;;;;9.10;6.83;;;5.80;91.80;;;;;;5048412;28;20205;-63
2022/12/18 04:34:06;;;;;;;7.03;5.83;;;5.80;91.80;;;;;;5045327;28;20680;-63
2022/12/18 04:36:39;;;;;;;9.63;7.47;;;5.80;91.70;;;;;;5049832;28;20194;-64
2022/12/18 04:39:06;;;;;;;8.67;7.33;;;5.80;91.70;;;;;;5058888;28;20239;-63
2022/12/18 04:41:33;;;;;;;9.50;7.50;;;5.80;91.80;;;;;;5054124;28;20204;-64
2022/12/18 04:44:02;;;;;;;8.97;7.00;;;5.70;91.90;;;;;;5050381;28;20214;-63
2022/12/18 04:46:29;;;;;;;9.80;7.60;;;5.70;92.00;;;;;;5062670;28;20194;-64
2022/12/18 04:48:56;;;;;;;9.67;7.30;;;5.70;92.10;;;;;;5060851;28;20205;-63
2022/12/18 04:51:23;;;;;;;10.10;7.57;;;5.80;92.30;;;;;;5066570;28;20220;-63
2022/12/18 04:53:53;;;;;;;9.47;7.40;;;5.80;92.30;;;;;;5064433;28;20723;-63
2022/12/18 04:56:20;;;;;;;8.27;7.43;;;5.80;92.40;;;;;;5063494;28;20631;-64
2022/12/18 04:58:48;;;;;;;11.60;7.80;;;5.80;92.40;;;;;;5063860;28;20213;-64
2022/12/18 05:01:16;;;;;;;7.20;6.50;;;5.80;92.40;;;;;;5064456;28;20673;-64
2022/12/18 05:03:43;;;;;;;9.83;7.13;;;5.90;92.50;;;;;;5065199;28;20205;-64
2022/12/18 05:06:11;;;;;;;10.43;7.47;;;5.80;92.50;;;;;;5066480;28;20228;-63
2022/12/18 05:08:38;;;;;;;8.13;7.23;;;5.90;92.40;;;;;;5065252;28;20282;-64
2022/12/18 05:11:11;;;;;;;11.83;7.73;;;5.90;92.40;;;;;;5067042;28;20205;-64
2022/12/18 05:13:38;;;;;;;10.00;7.57;;;5.90;92.40;;;;;;5047022;28;20260;-64
2022/12/18 05:16:06;;;;;;;8.80;7.40;;;5.90;92.40;;;;;;5066993;28;20194;-63
2022/12/18 05:18:34;;;;;;;11.70;7.23;;;5.90;92.40;;;;;;5061449;28;20263;-64
2022/12/18 05:21:01;;;;;;;10.30;7.53;;;5.90;92.40;;;;;;5046626;28;20205;-63
2022/12/18 05:23:29;;;;;;;9.23;7.30;;;5.90;92.40;;;;;;5066996;28;20648;-64
2022/12/18 05:25:58;;;;;;;9.03;7.53;;;5.90;92.40;;;;;;5064929;28;20202;-63
2022/12/18 05:28:28;;;;;;;8.40;7.10;;;5.90;92.30;;;;;;5065981;28;20229;-63
2022/12/18 05:30:58;;;;;;;7.87;6.87;;;5.90;92.30;;;;;;5066147;28;20267;-64
2022/12/18 05:33:27;;;;;;;8.23;7.03;;;5.90;92.30;;;;;;5061761;28;20214;-63
2022/12/18 05:35:57;;;;;;;9.27;7.10;;;5.80;92.30;;;;;;5066990;28;20217;-63
2022/12/18 05:38:25;;;;;;;8.70;7.47;;;5.80;92.40;;;;;;5063051;28;20193;-63
2022/12/18 05:40:53;;;;;;;8.30;7.40;;;5.70;92.70;;;;;;5066618;28;20228;-63
2022/12/18 05:43:24;;;;;;;6.90;6.03;;;5.80;92.40;;;;;;5065105;28;20206;-63
2022/12/18 05:45:52;;;;;;;8.97;7.33;;;5.70;92.40;;;;;;5065464;28;20213;-64
2022/12/18 05:48:20;;;;;;;8.83;7.73;;;5.70;92.50;;;;;;5063699;28;20281;-64
2022/12/18 05:50:48;;;;;;;9.47;7.23;;;5.60;92.50;;;;;;5069371;28;20229;-64
2022/12/18 05:53:18;;;;;;;9.10;7.07;;;5.60;92.50;;;;;;5061263;28;20246;-63
2022/12/18 05:55:46;;;;;;;10.33;7.70;;;5.50;92.30;;;;;;5059792;28;20208;-64
2022/12/18 05:58:14;;;;;;;9.00;7.57;;;5.50;92.20;;;;;;5063610;28;20225;-63
2022/12/18 06:00:45;;;;;;;9.97;7.23;;;5.50;92.30;;;;;;5064957;28;20201;-64
2022/12/18 06:03:13;;;;;;;11.90;7.47;;;5.40;92.30;;;;;;5022697;28;20215;-63
2022/12/18 06:05:44;;;;;;;11.23;8.83;;;5.40;92.40;;;;;;5019798;28;20207;-64
2022/12/18 06:08:13;;;;;;;8.80;7.37;;;5.30;92.50;;;;;;5025208;28;20206;-63
2022/12/18 06:10:41;;;;;;;8.33;7.50;;;5.30;92.50;;;;;;5020552;28;20520;-63
2022/12/18 06:13:08;;;;;;;9.47;7.17;;;5.30;92.50;;;;;;5016307;28;20241;-63
2022/12/18 06:15:38;;;;;;;7.83;7.03;;;5.30;92.60;;;;;;5022152;28;20202;-63
2022/12/18 06:18:05;;;;;;;9.60;7.10;;;5.20;92.60;;;;;;5025244;28;20209;-63
2022/12/18 06:20:32;;;;;;;10.90;8.73;;;5.10;92.50;;;;;;5025636;28;20213;-64
2022/12/18 06:23:00;;;;;;;9.00;7.57;;;5.10;92.60;;;;;;5021379;28;20261;-63
2022/12/18 06:25:27;;;;;;;8.23;7.37;;;5.10;92.60;;;;;;5022767;28;20203;-63
2022/12/18 06:27:54;;;;;;;9.43;8.23;;;5.00;92.60;;;;;;5024008;28;20212;-63
2022/12/18 06:30:22;;;;;;;11.10;8.13;;;5.00;92.70;;;;;;5026156;28;20634;-64
2022/12/18 06:32:49;;;;;;;8.63;7.67;;;5.00;92.80;;;;;;5023329;28;20213;-64
2022/12/18 06:35:23;;;;;;;9.63;7.13;;;4.90;92.70;;;;;;5023167;28;20222;-63
2022/12/18 06:37:50;;;;;;;10.47;6.93;;;4.90;92.70;;;;;;5025122;28;20195;-63
2022/12/18 06:40:18;;;;;;;9.73;8.67;;;4.80;92.70;;;;;;5026719;28;20207;-64
2022/12/18 06:42:45;;;;;;;12.03;7.87;;;4.80;92.80;;;;;;5026271;28;20277;-63
2022/12/18 06:45:15;;;;;;;9.23;8.00;;;4.70;92.90;;;;;;5028461;28;20202;-63
2022/12/18 06:47:42;;;;;;;10.63;8.37;;;4.70;93.10;;;;;;5029284;28;20667;-64
2022/12/18 06:50:10;;;;;;;9.17;7.60;;;4.70;93.20;;;;;;5026810;28;20206;-64
2022/12/18 06:52:38;;;;;;;9.27;7.77;;;4.70;93.20;;;;;;5024393;28;20202;-63
2022/12/18 06:55:08;;;;;;;10.60;8.30;;;4.70;93.30;;;;;;5019695;28;20225;-64
2022/12/18 06:57:35;;;;;;;12.17;8.70;;;4.70;93.30;;;;;;5023759;28;20719;-64
2022/12/18 07:00:04;;;;;;;10.83;8.23;;;4.60;93.30;;;;;;5026204;28;20360;-63
2022/12/18 07:02:31;;;;;;;11.00;8.10;;;4.70;93.30;;;;;;5056299;28;20675;-63
2022/12/18 07:04:58;;;;;;;10.00;7.83;;;4.60;93.30;;;;;;5050148;28;20227;-63
2022/12/18 07:07:25;;;;;;;8.83;7.60;;;4.60;93.40;;;;;;5063260;28;20204;-63
2022/12/18 07:09:53;;;;;;;8.83;7.03;;;4.60;93.40;;;;;;5059838;28;20208;-63
2022/12/18 07:12:20;;;;;;;10.53;7.47;;;4.60;93.40;;;;;;5062851;28;20208;-64
2022/12/18 07:14:47;;;;;;;10.03;8.03;;;4.60;93.30;;;;;;5051269;28;20229;-64
2022/12/18 07:17:14;;;;;;;11.87;7.77;;;4.60;93.30;;;;;;5060713;28;20201;-63
2022/12/18 07:19:41;;;;;;;11.50;8.63;;;4.50;93.30;;;;;;5058702;28;20201;-63
2022/12/18 07:22:08;;;;;;;9.70;7.80;;;4.50;93.40;;;;;;5059017;28;20228;-64
2022/12/18 07:24:35;;;;;;;8.70;7.67;;;4.50;93.40;;;;;;5062130;28;20698;-63
2022/12/18 07:27:02;;;;;;;8.77;6.80;;;4.50;93.50;;;;;;5056458;28;20710;-64
2022/12/18 07:29:29;;;;;;;8.67;7.77;;;4.50;93.50;;;;;;5059859;28;20307;-63
2022/12/18 07:31:56;;;;;;;9.20;7.67;;;4.50;93.60;;;;;;5062124;28;20620;-64
2022/12/18 07:34:23;;;;;;;9.80;7.73;;;4.60;93.60;;;;;;5058485;28;20227;-64
2022/12/18 07:36:50;;;;;;;9.07;7.57;;;4.60;93.60;;;;;;5044831;28;20196;-63
2022/12/18 07:39:17;;;;;;;10.03;7.83;;;4.60;93.60;;;;;;5059128;28;20566;-63
2022/12/18 07:42:30;;;;;;;10.40;7.23;;;4.60;93.60;;;;;;5062487;28;20476;-63
2022/12/18 07:44:32;;;;;;;11.57;8.07;;;4.60;93.60;;;;;;5061409;28;20203;-64
2022/12/18 07:46:59;;;;;;;8.73;7.83;;;4.60;93.60;;;;;;5061908;28;20292;-63
2022/12/18 07:49:26;;;;;;;9.53;7.53;;;4.50;93.60;;;;;;5046365;28;21106;-64
2022/12/18 07:51:55;;;;;;;12.50;8.93;;;4.60;93.70;;;;;;5064059;28;20536;-63
2022/12/18 07:54:24;;;;;;;10.83;8.13;;;4.60;93.80;;;;;;5054607;28;20225;-63
2022/12/18 07:56:52;;;;;;;11.10;8.67;;;4.70;93.90;;;;;;5057388;28;20511;-63
2022/12/18 07:59:19;;;;;;;14.90;10.40;;;4.70;93.90;;;;;;5057519;28;20280;-63
2022/12/18 08:01:46;;;;;;;11.63;7.93;;;4.80;93.90;;;;;;5061024;28;20241;-63
2022/12/18 08:04:13;;;;;;;16.70;9.10;;;5.00;93.90;;;;;;5061669;28;20213;-64
2022/12/18 08:06:40;;;;;;;15.90;10.73;;;5.10;93.70;;;;;;5060731;28;20257;-64
2022/12/18 08:09:13;;;;;;;14.83;10.67;;;5.10;93.50;;;;;;5062399;28;20827;-64
2022/12/18 08:11:40;;;;;;;15.33;10.33;;;5.20;93.30;;;;;;5064325;28;20204;-63
2022/12/18 08:14:07;;;;;;;19.33;13.87;;;5.30;93.20;;;;;;5061436;28;20274;-63
2022/12/18 08:16:35;;;;;;;19.27;13.73;;;5.30;93.10;;;;;;5059213;28;20649;-63
2022/12/18 08:19:02;;;;;;;23.07;13.47;;;5.40;92.90;;;;;;5061316;28;20203;-64
2022/12/18 08:21:31;;;;;;;19.57;12.77;;;5.50;92.70;;;;;;5062458;28;20274;-64
2022/12/18 08:24:00;;;;;;;13.70;10.20;;;5.50;92.50;;;;;;5063218;28;20201;-64
2022/12/18 08:26:29;;;;;;;12.83;9.13;;;5.60;92.30;;;;;;5058342;28;20266;-64
2022/12/18 08:28:58;;;;;;;12.33;8.80;;;5.70;92.20;;;;;;5059645;28;20625;-63
2022/12/18 08:31:27;;;;;;;11.73;8.73;;;5.80;92.00;;;;;;5066835;28;20831;-63
2022/12/18 08:33:55;;;;;;;12.03;8.80;;;5.90;91.90;;;;;;5062042;28;20209;-63
2022/12/18 08:36:23;;;;;;;13.03;8.93;;;5.90;91.80;;;;;;5058739;28;20197;-66
2022/12/18 08:38:52;;;;;;;11.93;9.20;;;6.00;91.70;;;;;;5061956;28;20283;-63
2022/12/18 08:41:20;;;;;;;13.60;8.47;;;6.10;91.40;;;;;;5063685;28;20220;-64
2022/12/18 08:46:49;;;;;;;12.00;8.37;;;6.10;90.70;;;;;;4972231;28;20312;-63
2022/12/18 08:49:16;;;;;;;13.17;9.13;;;6.10;90.40;;;;;;5046416;28;20603;-64
2022/12/18 08:51:44;;;;;;;10.97;8.10;;;6.10;90.20;;;;;;5061915;28;20239;-64
2022/12/18 08:54:12;;;;;;;11.23;8.67;;;6.10;90.20;;;;;;5064354;28;20259;-64
2022/12/18 08:56:39;;;;;;;11.53;9.60;;;6.20;90.20;;;;;;5064078;28;20270;-63
2022/12/18 08:59:07;;;;;;;10.53;8.47;;;6.30;90.30;;;;;;5062859;28;20202;-64
2022/12/18 09:01:34;;;;;;;16.30;11.17;;;6.50;90.40;;;;;;5065640;28;20265;-63
2022/12/18 09:04:01;;;;;;;12.17;8.47;;;6.60;90.20;;;;;;5059649;28;20202;-65
2022/12/18 09:06:28;;;;;;;12.57;9.17;;;6.70;89.80;;;;;;5059416;28;20271;-63
2022/12/18 09:08:57;;;;;;;12.67;9.10;;;6.80;89.00;;;;;;5059587;28;20304;-64
2022/12/18 09:11:26;;;;;;;12.00;7.97;;;7.00;88.60;;;;;;5062085;28;20624;-63
2022/12/18 09:13:55;;;;;;;11.33;8.67;;;7.00;88.10;;;;;;5059526;28;20684;-63
2022/12/18 09:16:23;;;;;;;11.33;8.90;;;7.10;87.50;;;;;;5062951;28;20218;-63
2022/12/18 09:19:01;;;;;;;12.97;7.83;;;7.20;87.30;;;;;;5062149;28;20209;-63
2022/12/18 09:21:31;;;;;;;11.77;9.20;;;7.20;87.20;;;;;;5070136;28;20343;-63
2022/12/18 09:24:04;;;;;;;12.90;8.40;;;7.30;87.20;;;;;;5064926;28;20209;-63
2022/12/18 09:26:35;;;;;;;12.13;9.20;;;7.40;86.70;;;;;;5064015;28;20231;-63
2022/12/18 09:29:03;;;;;;;13.07;9.30;;;7.50;86.80;;;;;;5065397;28;20528;-63
2022/12/18 09:31:30;;;;;;;13.57;8.80;;;7.60;86.30;;;;;;5066139;28;20282;-63
2022/12/18 09:33:57;;;;;;;10.20;8.00;;;7.60;85.30;;;;;;5063597;28;20614;-63
2022/12/18 09:36:24;;;;;;;10.00;8.40;;;7.70;85.50;;;;;;5063232;28;20255;-63
2022/12/18 09:38:51;;;;;;;9.63;7.53;;;7.70;84.80;;;;;;5059092;28;20297;-63
2022/12/18 09:41:39;;;;;;;11.73;7.30;;;7.80;84.30;;;;;;5066983;28;20586;-63
2022/12/18 09:44:18;;;;;;;11.13;8.83;;;7.80;83.70;;;;;;5050014;28;20550;-64
2022/12/18 09:46:58;;;;;;;12.97;10.27;;;7.90;83.80;;;;;;5067083;28;20259;-63
2022/12/18 09:49:30;;;;;;;12.33;9.53;;;7.90;84.00;;;;;;5067369;28;20225;-63
2022/12/18 09:52:25;;;;;;;14.93;10.47;;;8.00;83.70;;;;;;5069455;28;20213;-63
2022/12/18 09:55:21;;;;;;;10.57;8.97;;;8.10;82.80;;;;;;5050861;28;20230;-64
2022/12/18 09:57:54;;;;;;;14.30;9.80;;;8.10;82.00;;;;;;5056090;28;20214;-64
2022/12/18 10:00:24;;;;;;;9.33;7.87;;;8.20;81.70;;;;;;5059961;28;20229;-63
2022/12/18 10:03:02;;;;;;;10.27;8.23;;;8.30;80.80;;;;;;5066004;28;20234;-63
2022/12/18 10:05:42;;;;;;;9.10;7.17;;;8.30;80.30;;;;;;5066676;28;20209;-64
2022/12/18 10:08:23;;;;;;;9.60;6.60;;;8.40;78.00;;;;;;5064845;28;20532;-64
2022/12/18 10:10:53;;;;;;;9.53;7.13;;;8.40;76.20;;;;;;5067482;28;20198;-64
2022/12/18 10:13:29;;;;;;;9.50;7.47;;;8.50;76.30;;;;;;5063712;28;20265;-64
2022/12/18 10:16:36;;;;;;;9.17;6.80;;;8.50;76.30;;;;;;5060510;28;20256;-64
2022/12/18 10:19:48;;;;;;;9.53;6.90;;;8.50;75.70;;;;;;4978296;28;20228;-64
2022/12/18 10:22:34;;;;;;;8.53;6.97;;;8.60;74.40;;;;;;5064338;28;20240;-62
2022/12/18 10:25:26;;;;;;;8.23;5.93;;;8.60;73.70;;;;;;5060499;28;20193;-64
2022/12/18 10:28:07;;;;;;;9.27;6.90;;;8.70;73.20;;;;;;5064158;28;20201;-64
2022/12/18 10:30:34;;;;;;;10.17;6.63;;;8.70;73.20;;;;;;5061263;28;20197;-64
2022/12/18 10:33:02;;;;;;;9.33;6.97;;;8.70;72.90;;;;;;5063520;28;20210;-64
2022/12/18 10:35:29;;;;;;;11.43;7.23;;;8.70;73.50;;;;;;5061563;28;20266;-64
2022/12/18 10:38:22;;;;;;;9.20;7.03;;;8.70;73.80;;;;;;5063700;28;20576;-64
2022/12/18 10:41:01;;;;;;;10.03;6.60;;;8.80;72.00;;;;;;5057560;28;20217;-64
2022/12/18 10:43:31;;;;;;;11.37;7.50;;;8.80;72.80;;;;;;5067665;28;20564;-64
2022/12/18 10:46:09;;;;;;;10.50;7.30;;;8.80;73.10;;;;;;5063869;28;20207;-64
2022/12/18 10:48:40;;;;;;;10.17;7.97;;;8.80;72.70;;;;;;5063211;28;20193;-64
2022/12/18 10:51:08;;;;;;;10.50;7.17;;;8.90;71.70;;;;;;5069109;28;20193;-64
2022/12/18 10:53:41;;;;;;;11.43;8.07;;;9.00;71.90;;;;;;5059260;28;20199;-64
2022/12/18 10:56:08;;;;;;;10.40;7.97;;;9.00;72.70;;;;;;5063071;28;20234;-64
2022/12/18 10:58:38;;;;;;;9.57;7.80;;;9.10;73.10;;;;;;5059948;28;20203;-64
2022/12/18 11:01:08;;;;;;;10.30;7.87;;;9.10;73.00;;;;;;5059650;28;20242;-64
2022/12/18 11:03:44;;;;;;;9.70;7.10;;;9.10;73.00;;;;;;5061850;28;20192;-64
2022/12/18 11:06:24;;;;;;;8.60;6.77;;;9.20;73.20;;;;;;5062743;28;20285;-64
2022/12/18 11:09:05;;;;;;;11.90;7.50;;;9.20;72.40;;;;;;5065083;28;20573;-65
2022/12/18 11:11:39;;;;;;;8.90;6.90;;;9.30;72.60;;;;;;5063745;28;20203;-64
2022/12/18 11:14:14;;;;;;;11.23;7.67;;;9.40;72.50;;;;;;5061981;28;20213;-64
2022/12/18 11:16:47;;;;;;;11.27;7.67;;;9.50;71.80;;;;;;5060721;28;20202;-64
2022/12/18 11:19:39;;;;;;;10.47;7.57;;;9.50;71.70;;;;;;5067843;28;20214;-64
2022/12/18 11:22:26;;;;;;;11.27;7.47;;;9.60;72.60;;;;;;5063017;28;20207;-64
2022/12/18 11:25:00;;;;;;;9.17;6.60;;;9.70;70.90;;;;;;5059884;28;20230;-64
2022/12/18 11:27:54;;;;;;;12.10;7.60;;;9.80;69.80;;;;;;5064673;28;20311;-64
2022/12/18 11:30:27;;;;;;;11.03;7.90;;;9.80;70.70;;;;;;5060363;28;20205;-64
2022/12/18 11:33:09;;;;;;;9.47;7.30;;;9.90;71.00;;;;;;5060751;28;20289;-64
2022/12/18 11:35:55;;;;;;;9.40;7.20;;;10.00;71.40;;;;;;5057565;28;20207;-64
2022/12/18 11:38:25;;;;;;;8.57;7.30;;;10.10;70.50;;;;;;5061782;28;20191;-64
2022/12/18 11:41:10;;;;;;;10.13;7.70;;;10.20;68.90;;;;;;5066044;28;20217;-64
2022/12/18 11:43:53;;;;;;;12.13;7.97;;;10.20;68.90;;;;;;5064794;28;20186;-64
2022/12/18 11:46:34;;;;;;;11.47;7.83;;;10.30;69.80;;;;;;5060935;28;20251;-64
2022/12/18 11:49:15;;;;;;;12.47;7.63;;;10.40;69.90;;;;;;5065612;28;20205;-64
2022/12/18 11:51:51;;;;;;;13.17;8.80;;;10.40;69.70;;;;;;5062905;28;20203;-64
2022/12/18 11:54:18;;;;;;;11.60;8.17;;;10.50;69.70;;;;;;5053464;28;20210;-64
2022/12/18 11:56:58;;;;;;;11.60;8.33;;;10.60;69.20;;;;;;5065609;28;20235;-64
2022/12/18 11:59:52;;;;;;;9.30;7.33;;;10.60;68.60;;;;;;5063087;28;20268;-64
2022/12/18 12:02:25;;;;;;;11.47;7.93;;;10.70;69.70;;;;;;5063450;28;20236;-64
2022/12/18 12:05:01;;;;;;;10.50;8.30;;;10.70;69.10;;;;;;5058462;28;20200;-64
2022/12/18 12:07:58;;;;;;;9.33;7.33;;;10.80;68.90;;;;;;5064001;28;20592;-64
2022/12/18 12:10:37;;;;;;;11.73;8.50;;;10.80;69.20;;;;;;5061890;28;20201;-64
2022/12/18 12:13:14;;;;;;;11.47;7.77;;;10.90;69.10;;;;;;5066157;28;20220;-64
2022/12/18 12:16:06;;;;;;;10.83;8.07;;;11.00;69.60;;;;;;5062734;28;20235;-64
2022/12/18 12:18:52;;;;;;;10.70;7.70;;;11.10;70.10;;;;;;5044505;28;20651;-64
2022/12/18 12:21:37;;;;;;;11.10;7.60;;;11.20;69.40;;;;;;5066692;28;20207;-64
2022/12/18 12:24:18;;;;;;;12.53;8.57;;;11.20;69.40;;;;;;5061312;28;20207;-64
2022/12/18 12:26:57;;;;;;;9.13;7.43;;;11.20;69.20;;;;;;5056353;28;20198;-64
2022/12/18 12:29:33;;;;;;;803.73;413.63;;;11.20;69.60;;;;;;5059695;28;20192;-64
2022/12/18 12:32:38;;;;;;;132.70;88.17;;;11.30;68.70;;;;;;5062211;28;20207;-64
2022/12/18 12:35:40;;;;;;;70.97;44.17;;;11.30;68.70;;;;;;5046963;28;20673;-63
2022/12/18 12:38:19;;;;;;;37.10;21.13;;;11.40;68.20;;;;;;5059700;28;20296;-64
2022/12/18 12:40:54;;;;;;;81.60;50.70;;;11.30;67.80;;;;;;5068151;28;20234;-64
2022/12/18 12:43:35;;;;;;;1518.53;788.70;;;11.30;67.40;;;;;;5065663;28;20196;-64
2022/12/18 12:46:08;;;;;;;21.80;16.00;;;11.30;67.90;;;;;;5063036;28;20211;-64
2022/12/18 12:48:44;;;;;;;552.10;238.53;;;11.30;67.90;;;;;;5057010;28;20209;-64
2022/12/18 12:51:25;;;;;;;15.93;10.17;;;11.20;67.50;;;;;;5065256;28;20207;-64
2022/12/18 12:53:54;;;;;;;115.90;57.33;;;11.20;68.40;;;;;;5054997;28;20225;-64
2022/12/18 12:56:22;;;;;;;429.90;149.03;;;11.10;68.00;;;;;;5065377;28;20205;-64
2022/12/18 12:59:20;;;;;;;89.67;33.60;;;11.10;68.80;;;;;;5068951;28;20633;-64
2022/12/18 13:01:52;;;;;;;272.23;79.90;;;11.10;68.80;;;;;;5033709;28;20248;-64
2022/12/18 13:04:42;;;;;;;140.83;40.20;;;11.10;68.90;;;;;;5061847;28;20231;-64
2022/12/18 13:07:18;;;;;;;24.83;12.97;;;11.00;68.70;;;;;;5063283;28;20204;-64
2022/12/18 13:10:12;;;;;;;125.53;31.43;;;11.00;68.70;;;;;;5067445;28;20233;-64
2022/12/18 13:12:56;;;;;;;46.47;16.77;;;10.90;68.60;;;;;;5066905;28;20206;-65
2022/12/18 13:15:39;;;;;;;115.87;32.10;;;10.90;68.30;;;;;;5066276;28;20247;-65
2022/12/18 13:18:12;;;;;;;15.40;9.90;;;10.90;68.40;;;;;;5069601;28;20323;-65
2022/12/18 13:20:42;;;;;;;159.83;38.87;;;10.80;68.30;;;;;;5067645;28;20545;-65
2022/12/18 13:23:29;;;;;;;67.37;17.23;;;10.80;68.40;;;;;;5062661;28;20197;-64
2022/12/18 13:26:11;;;;;;;33.77;14.93;;;10.70;68.70;;;;;;5067434;28;20208;-64
2022/12/18 13:28:47;;;;;;;30.77;13.37;;;10.70;68.90;;;;;;5066293;28;20192;-64